createdAt,value
2018-01-17T00:01:45.734Z,98546
2018-01-17T00:04:13.799Z,98560
2018-01-17T00:06:41.853Z,98550
2018-01-17T00:09:09.905Z,98555
2018-01-17T00:11:38.734Z,98559
2018-01-17T00:14:06.796Z,98558
2018-01-17T00:16:34.862Z,98551
2018-01-17T00:19:02.922Z,98552
2018-01-17T00:21:31.750Z,98561
2018-01-17T00:23:59.821Z,98554
2018-01-17T00:26:27.873Z,98553
2018-01-17T00:28:55.946Z,98562
2018-01-17T00:31:24.008Z,98562
2018-01-17T00:33:52.073Z,98550
2018-01-17T00:36:20.159Z,98548
2018-01-17T00:38:48.222Z,98545
2018-01-17T00:41:16.286Z,98544
2018-01-17T00:43:44.350Z,98551
2018-01-17T00:46:12.405Z,98544
2018-01-17T00:48:41.229Z,98547
2018-01-17T00:51:09.294Z,98541
2018-01-17T00:53:37.358Z,98543
2018-01-17T00:56:05.413Z,98545
2018-01-17T00:58:33.474Z,98543
2018-01-17T01:01:02.298Z,98557
2018-01-17T01:03:30.364Z,98552
2018-01-17T01:05:58.417Z,98543
2018-01-17T01:08:26.469Z,98544
2018-01-17T01:10:55.299Z,98535
2018-01-17T01:13:23.363Z,98546
2018-01-17T01:15:51.440Z,98543
2018-01-17T01:18:19.493Z,98549
2018-01-17T01:20:47.567Z,98543
2018-01-17T01:23:15.617Z,98546
2018-01-17T01:25:44.440Z,98546
2018-01-17T01:28:12.503Z,98530
2018-01-17T01:30:40.572Z,98531
2018-01-17T01:33:08.628Z,98527
2018-01-17T01:35:36.691Z,98550
2018-01-17T01:38:04.749Z,98540
2018-01-17T01:40:33.574Z,98538
2018-01-17T01:43:01.634Z,98547
2018-01-17T01:45:29.693Z,98546
2018-01-17T01:47:57.749Z,98542
2018-01-17T01:50:26.582Z,98543
2018-01-17T01:52:54.645Z,98530
2018-01-17T01:55:22.702Z,98543
2018-01-17T01:57:50.770Z,98546
2018-01-17T02:00:18.825Z,98541
2018-01-17T02:02:47.666Z,98526
2018-01-17T02:05:15.724Z,98528
2018-01-17T02:07:43.799Z,98522
2018-01-17T02:10:11.858Z,98515
2018-01-17T02:12:39.914Z,98512
2018-01-17T02:15:07.975Z,98518
2018-01-17T02:17:36.038Z,98511
2018-01-17T02:20:04.853Z,98520
2018-01-17T02:22:32.913Z,98523
2018-01-17T02:25:00.975Z,98513
2018-01-17T02:27:29.043Z,98520
2018-01-17T02:29:57.102Z,98520
2018-01-17T02:32:25.933Z,98515
2018-01-17T02:34:53.987Z,98513
2018-01-17T02:37:22.070Z,98515
2018-01-17T02:40:08.081Z,98522
2018-01-17T02:42:36.146Z,98521
2018-01-17T02:45:04.211Z,98517
2018-01-17T02:47:32.269Z,98517
2018-01-17T02:50:00.338Z,98517
2018-01-17T02:52:28.426Z,98510
2018-01-17T02:54:56.497Z,98521
2018-01-17T02:57:24.550Z,98524
2018-01-17T02:59:52.609Z,98525
2018-01-17T03:02:20.670Z,98521
2018-01-17T03:04:48.736Z,98527
2018-01-17T03:07:16.790Z,98516
2018-01-17T03:09:45.632Z,98524
2018-01-17T03:12:13.696Z,98521
2018-01-17T03:14:41.754Z,98518
2018-01-17T03:17:09.807Z,98518
2018-01-17T03:19:37.882Z,98509
2018-01-17T03:22:05.943Z,98507
2018-01-17T03:24:34.819Z,98496
2018-01-17T03:27:03.669Z,98496
2018-01-17T03:29:31.726Z,98506
2018-01-17T03:31:59.799Z,98499
2018-01-17T03:34:27.897Z,98499
2018-01-17T03:36:55.967Z,98490
2018-01-17T03:39:24.017Z,98491
2018-01-17T03:41:52.069Z,98496
2018-01-17T03:44:20.125Z,98498
2018-01-17T03:46:48.193Z,98496
2018-01-17T03:49:16.258Z,98497
2018-01-17T03:51:45.073Z,98484
2018-01-17T03:54:13.140Z,98488
2018-01-17T03:56:41.206Z,98487
2018-01-17T03:59:09.266Z,98490
2018-01-17T04:01:37.330Z,98499
2018-01-17T04:04:05.390Z,98478
2018-01-17T04:06:35.125Z,98492
2018-01-17T04:09:03.193Z,98480
2018-01-17T04:11:31.275Z,98478
2018-01-17T04:13:59.334Z,98489
2018-01-17T04:16:27.394Z,98493
2018-01-17T04:18:55.465Z,98479
2018-01-17T04:21:23.521Z,98482
2018-01-17T04:23:52.365Z,98490
2018-01-17T04:26:20.425Z,98483
2018-01-17T04:28:48.486Z,98488
2018-01-17T04:31:16.558Z,98488
2018-01-17T04:33:44.623Z,98487
2018-01-17T04:36:12.713Z,98486
2018-01-17T04:38:40.778Z,98491
2018-01-17T04:41:08.830Z,98493
2018-01-17T04:43:36.896Z,98493
2018-01-17T04:46:05.001Z,98489
2018-01-17T04:48:33.068Z,98495
2018-01-17T04:51:01.122Z,98497
2018-01-17T04:53:29.183Z,98493
2018-01-17T04:55:57.247Z,98498
2018-01-17T04:58:25.308Z,98512
2018-01-17T05:00:53.394Z,98510
2018-01-17T05:03:21.445Z,98494
2018-01-17T05:05:49.510Z,98493
2018-01-17T05:08:17.582Z,98498
2018-01-17T05:10:46.422Z,98508
2018-01-17T05:13:14.489Z,98501
2018-01-17T05:15:42.557Z,98506
2018-01-17T05:18:10.618Z,98506
2018-01-17T05:20:38.678Z,98493
2018-01-17T05:23:06.750Z,98495
2018-01-17T05:25:34.844Z,98487
2018-01-17T05:28:02.893Z,98489
2018-01-17T05:30:30.970Z,98484
2018-01-17T05:32:59.026Z,98489
2018-01-17T05:35:27.082Z,98486
2018-01-17T05:37:55.137Z,98482
2018-01-17T05:40:23.957Z,98494
2018-01-17T05:42:52.205Z,98493
2018-01-17T05:45:21.023Z,98489
2018-01-17T05:47:49.085Z,98480
2018-01-17T05:50:17.137Z,98485
2018-01-17T05:52:45.201Z,98487
2018-01-17T05:55:14.031Z,98484
2018-01-17T05:57:43.283Z,98490
2018-01-17T06:00:11.353Z,98482
2018-01-17T06:02:40.187Z,98491
2018-01-17T06:05:08.294Z,98488
2018-01-17T06:07:37.177Z,98497
2018-01-17T06:10:05.246Z,98492
2018-01-17T06:12:34.239Z,98481
2018-01-17T06:15:03.288Z,98488
2018-01-17T06:17:31.346Z,98489
2018-01-17T06:19:59.406Z,98488
2018-01-17T06:22:27.472Z,98495
2018-01-17T06:24:56.381Z,98495
2018-01-17T06:27:24.447Z,98498
2018-01-17T06:29:52.509Z,98492
2018-01-17T06:32:21.321Z,98506
2018-01-17T06:34:49.401Z,98507
2018-01-17T06:37:17.458Z,98507
2018-01-17T06:39:45.522Z,98519
2018-01-17T06:42:13.587Z,98516
2018-01-17T06:44:41.649Z,98517
2018-01-17T06:47:09.724Z,98519
2018-01-17T06:49:37.787Z,98518
2018-01-17T06:52:06.615Z,98519
2018-01-17T06:54:34.683Z,98521
2018-01-17T06:57:02.741Z,98529
2018-01-17T06:59:30.828Z,98534
2018-01-17T07:01:58.880Z,98535
2018-01-17T07:04:26.953Z,98524
2018-01-17T07:06:55.005Z,98528
2018-01-17T07:09:23.058Z,98527
2018-01-17T07:11:51.886Z,98518
2018-01-17T07:14:19.942Z,98521
2018-01-17T07:16:48.019Z,98528
2018-01-17T07:19:16.097Z,98538
2018-01-17T07:21:44.174Z,98531
2018-01-17T07:24:12.245Z,98540
2018-01-17T07:26:40.305Z,98525
2018-01-17T07:29:08.358Z,98524
2018-01-17T07:31:36.484Z,98535
2018-01-17T07:34:04.555Z,98534
2018-01-17T07:36:32.613Z,98537
2018-01-17T07:39:00.669Z,98540
2018-01-17T07:41:28.738Z,98530
2018-01-17T07:43:56.799Z,98530
2018-01-17T07:46:24.871Z,98529
2018-01-17T07:48:52.938Z,98534
2018-01-17T07:51:20.989Z,98530
2018-01-17T07:53:49.054Z,98539
2018-01-17T07:56:17.121Z,98529
2018-01-17T07:58:45.947Z,98543
2018-01-17T08:01:14.029Z,98551
2018-01-17T08:03:42.082Z,98554
2018-01-17T08:06:10.135Z,98560
2018-01-17T08:08:38.194Z,98554
2018-01-17T08:11:06.295Z,98561
2018-01-17T08:13:34.370Z,98568
2018-01-17T08:16:02.414Z,98564
2018-01-17T08:18:30.486Z,98556
2018-01-17T08:20:58.550Z,98570
2018-01-17T08:23:27.588Z,98575
2018-01-17T08:25:55.648Z,98578
2018-01-17T08:28:23.715Z,98574
2018-01-17T08:30:51.771Z,98572
2018-01-17T08:33:19.833Z,98596
2018-01-17T08:35:47.893Z,98580
2018-01-17T08:38:15.967Z,98581
2018-01-17T08:40:44.024Z,98583
2018-01-17T08:43:12.857Z,98584
2018-01-17T08:45:40.910Z,98593
2018-01-17T08:48:08.979Z,98601
2018-01-17T08:50:37.044Z,98600
2018-01-17T08:53:05.105Z,98604
2018-01-17T08:55:33.178Z,98603
2018-01-17T08:58:01.232Z,98602
2018-01-17T09:00:30.062Z,98605
2018-01-17T09:02:58.141Z,98612
2018-01-17T09:05:26.206Z,98611
2018-01-17T09:07:54.262Z,98622
2018-01-17T09:10:22.337Z,98622
2018-01-17T09:12:50.386Z,98623
2018-01-17T09:15:18.453Z,98630
2018-01-17T09:17:46.526Z,98636
2018-01-17T09:20:15.350Z,98639
2018-01-17T09:22:43.417Z,98645
2018-01-17T09:25:11.482Z,98650
2018-01-17T09:27:39.538Z,98654
2018-01-17T09:30:07.599Z,98650
2018-01-17T09:32:35.663Z,98653
2018-01-17T09:35:03.725Z,98661
2018-01-17T09:37:32.559Z,98669
2018-01-17T09:40:00.641Z,98659
2018-01-17T09:42:28.707Z,98669
2018-01-17T09:44:56.762Z,98680
2018-01-17T09:47:24.823Z,98677
2018-01-17T09:49:52.888Z,98683
2018-01-17T09:52:20.964Z,98686
2018-01-17T09:54:49.021Z,98694
2018-01-17T09:57:17.083Z,98701
2018-01-17T09:59:45.906Z,98704
2018-01-17T10:02:13.976Z,98730
2018-01-17T10:04:42.034Z,98711
2018-01-17T10:07:10.106Z,98703
2018-01-17T10:09:38.175Z,98716
2018-01-17T10:12:06.245Z,98695
2018-01-17T10:14:34.317Z,98707
2018-01-17T10:17:02.390Z,98713
2018-01-17T10:19:30.445Z,98713
2018-01-17T10:21:58.531Z,98718
2018-01-17T10:24:26.590Z,98720
2018-01-17T10:26:54.650Z,98731
2018-01-17T10:29:22.715Z,98740
2018-01-17T10:31:51.592Z,98721
2018-01-17T10:34:19.614Z,98727
2018-01-17T10:36:47.713Z,98738
2018-01-17T10:39:15.770Z,98739
2018-01-17T10:41:43.830Z,98733
2018-01-17T10:44:11.891Z,98741
2018-01-17T10:46:39.949Z,98737
2018-01-17T10:49:08.019Z,98745
2018-01-17T10:51:36.081Z,98754
2018-01-17T10:54:04.143Z,98745
2018-01-17T10:56:32.203Z,98751
2018-01-17T10:59:01.085Z,98751
2018-01-17T11:01:29.906Z,98751
2018-01-17T11:03:57.978Z,98748
2018-01-17T11:06:26.033Z,98757
2018-01-17T11:08:54.101Z,98753
2018-01-17T11:11:22.162Z,98757
2018-01-17T11:13:50.989Z,98756
2018-01-17T11:16:19.974Z,98752
2018-01-17T11:18:48.038Z,98762
2018-01-17T11:21:16.112Z,98768
2018-01-17T11:23:44.175Z,98767
2018-01-17T11:26:12.239Z,98774
2018-01-17T11:28:40.965Z,98775
2018-01-17T11:31:09.018Z,98773
2018-01-17T11:33:37.086Z,98781
2018-01-17T11:36:05.147Z,98778
2018-01-17T11:38:33.226Z,98782
2018-01-17T11:41:01.294Z,98782
2018-01-17T11:43:29.355Z,98800
2018-01-17T11:45:57.422Z,98792
2018-01-17T11:48:25.486Z,98795
2018-01-17T11:50:53.559Z,98805
2018-01-17T11:53:21.614Z,98797
2018-01-17T11:55:50.462Z,98785
2018-01-17T11:58:18.503Z,98811
2018-01-17T12:00:46.575Z,98807
2018-01-17T12:03:14.629Z,98798
2018-01-17T12:05:42.686Z,98799
2018-01-17T12:08:10.769Z,98816
2018-01-17T12:10:38.841Z,98809
2018-01-17T12:13:06.893Z,98811
2018-01-17T12:15:35.730Z,98825
2018-01-17T12:18:03.802Z,98822
2018-01-17T12:20:31.865Z,98822
2018-01-17T12:22:59.926Z,98814
2018-01-17T12:25:27.999Z,98827
2018-01-17T12:27:56.063Z,98821
2018-01-17T12:30:24.120Z,98827
2018-01-17T12:32:52.193Z,98824
2018-01-17T12:35:20.250Z,98835
2018-01-17T12:37:48.313Z,98826
2018-01-17T12:40:18.053Z,98841
2018-01-17T12:42:46.120Z,98835
2018-01-17T12:45:14.175Z,98846
2018-01-17T12:47:42.233Z,98845
2018-01-17T12:50:11.058Z,98852
2018-01-17T12:52:39.123Z,98860
2018-01-17T12:55:07.187Z,98841
2018-01-17T12:57:35.242Z,98853
2018-01-17T13:00:03.308Z,98852
2018-01-17T13:02:32.137Z,98865
2018-01-17T13:05:00.195Z,98849
2018-01-17T13:07:28.261Z,98850
2018-01-17T13:09:56.322Z,98859
2018-01-17T13:12:24.382Z,98879
2018-01-17T13:14:52.451Z,98880
2018-01-17T13:17:21.284Z,98889
2018-01-17T13:19:49.372Z,98876
2018-01-17T13:22:17.440Z,98891
2018-01-17T13:24:45.511Z,98887
2018-01-17T13:27:13.569Z,98903
2018-01-17T13:29:41.639Z,98901
2018-01-17T13:32:09.695Z,98902
2018-01-17T13:34:37.767Z,98904
2018-01-17T13:37:05.817Z,98910
2018-01-17T13:39:33.889Z,98910
2018-01-17T13:42:02.416Z,98927
2018-01-17T13:44:31.389Z,98929
2018-01-17T13:46:59.461Z,98921
2018-01-17T13:49:27.524Z,98931
2018-01-17T13:51:55.588Z,98927
2018-01-17T13:54:23.651Z,98931
2018-01-17T13:56:51.731Z,98945
2018-01-17T13:59:19.781Z,98952
2018-01-17T14:01:47.841Z,98950
2018-01-17T14:04:15.901Z,98951
2018-01-17T14:06:44.737Z,98954
2018-01-17T14:09:12.815Z,98952
2018-01-17T14:11:40.877Z,98966
2018-01-17T14:14:08.942Z,98964
2018-01-17T14:16:37.006Z,98978
2018-01-17T14:19:05.062Z,98978
2018-01-17T14:21:33.129Z,98980
2018-01-17T14:24:01.187Z,98992
2018-01-17T14:26:30.017Z,98988
2018-01-17T14:28:58.068Z,98984
2018-01-17T14:31:26.178Z,98990
2018-01-17T14:33:54.205Z,99005
2018-01-17T14:36:22.270Z,99000
2018-01-17T14:38:50.335Z,99009
2018-01-17T14:41:18.413Z,99017
2018-01-17T14:43:46.474Z,99023
2018-01-17T14:46:14.537Z,99032
2018-01-17T14:48:43.372Z,99050
2018-01-17T14:51:11.422Z,99055
2018-01-17T14:53:39.495Z,99049
2018-01-17T14:56:07.566Z,99054
2018-01-17T14:58:35.634Z,99062
2018-01-17T15:01:03.689Z,99060
2018-01-17T15:03:31.763Z,99067
2018-01-17T15:05:59.815Z,99076
2018-01-17T15:08:28.654Z,99085
2018-01-17T15:10:56.718Z,99076
2018-01-17T15:13:24.787Z,99084
2018-01-17T15:15:52.843Z,99083
2018-01-17T15:18:20.910Z,99090
2018-01-17T15:20:49.013Z,99093
2018-01-17T15:23:17.088Z,99107
2018-01-17T15:25:45.142Z,99098
2018-01-17T15:28:13.206Z,99110
2018-01-17T15:30:41.265Z,99113
2018-01-17T15:33:09.321Z,99106
2018-01-17T15:35:37.386Z,99113
2018-01-17T15:38:05.466Z,99119
2018-01-17T15:40:33.596Z,99123
2018-01-17T15:43:01.658Z,99123
2018-01-17T15:45:29.730Z,99123
2018-01-17T15:47:57.782Z,99140
2018-01-17T15:50:25.846Z,99135
2018-01-17T15:52:53.910Z,99148
2018-01-17T15:55:21.965Z,99129
2018-01-17T15:57:50.021Z,99137
2018-01-17T16:00:18.085Z,99147
2018-01-17T16:02:46.152Z,99147
2018-01-17T16:05:14.987Z,99156
2018-01-17T16:07:43.059Z,99155
2018-01-17T16:10:11.127Z,99155
2018-01-17T16:12:39.191Z,99150
2018-01-17T16:15:07.270Z,99166
2018-01-17T16:17:35.329Z,99163
2018-01-17T16:20:03.405Z,99171
2018-01-17T16:22:31.459Z,99189
2018-01-17T16:24:59.522Z,99185
2018-01-17T16:27:27.582Z,99190
2018-01-17T16:29:55.689Z,99184
2018-01-17T16:32:23.753Z,99185
2018-01-17T16:34:51.820Z,99182
2018-01-17T16:37:19.884Z,99202
2018-01-17T16:39:47.936Z,99191
2018-01-17T16:42:16.001Z,99194
2018-01-17T16:44:44.058Z,99190
2018-01-17T16:47:12.899Z,99208
2018-01-17T16:49:40.962Z,99193
2018-01-17T16:52:09.022Z,99199
2018-01-17T16:54:37.082Z,99212
2018-01-17T16:57:05.144Z,99207
2018-01-17T16:59:33.975Z,99209
2018-01-17T17:02:02.025Z,99217
2018-01-17T17:04:30.093Z,99218
2018-01-17T17:06:58.141Z,99226
2018-01-17T17:09:26.220Z,99214
2018-01-17T17:11:54.280Z,99215
2018-01-17T17:14:23.106Z,99228
2018-01-17T17:16:51.159Z,99216
2018-01-17T17:19:19.231Z,99231
2018-01-17T17:21:47.294Z,99233
2018-01-17T17:24:15.351Z,99240
2018-01-17T17:26:43.410Z,99244
2018-01-17T17:29:12.233Z,99225
2018-01-17T17:31:40.299Z,99237
2018-01-17T17:34:08.371Z,99232
2018-01-17T17:36:36.438Z,99235
2018-01-17T17:39:04.500Z,99242
2018-01-17T17:41:32.574Z,99239
2018-01-17T17:44:00.631Z,99245
2018-01-17T17:46:28.735Z,99251
2018-01-17T17:48:56.783Z,99247
2018-01-17T17:51:24.853Z,99258
2018-01-17T17:53:52.959Z,99249
2018-01-17T17:56:20.976Z,99258
2018-01-17T17:58:49.814Z,99271
2018-01-17T18:01:17.876Z,99263
2018-01-17T18:03:45.943Z,99269
2018-01-17T18:06:14.013Z,99268
2018-01-17T18:08:42.072Z,99259
2018-01-17T18:11:10.145Z,99262
2018-01-17T18:13:38.215Z,99274
2018-01-17T18:16:06.270Z,99268
2018-01-17T18:18:34.321Z,99258
2018-01-17T18:21:03.153Z,99262
2018-01-17T18:23:31.234Z,99270
2018-01-17T18:25:59.296Z,99266
2018-01-17T18:28:27.354Z,99280
2018-01-17T18:30:55.406Z,99278
2018-01-17T18:33:23.474Z,99299
2018-01-17T18:35:52.293Z,99287
2018-01-17T18:38:20.359Z,99297
2018-01-17T18:40:48.435Z,99300
2018-01-17T18:43:16.490Z,99297
2018-01-17T18:45:44.581Z,99310
2018-01-17T18:48:12.650Z,99314
2018-01-17T18:50:40.710Z,99305
2018-01-17T18:53:08.777Z,99317
2018-01-17T18:55:36.830Z,99318
2018-01-17T18:58:04.907Z,99326
2018-01-17T19:00:32.967Z,99313
2018-01-17T19:03:01.026Z,99318
2018-01-17T19:05:29.854Z,99324
2018-01-17T19:07:57.919Z,99342
2018-01-17T19:10:25.974Z,99338
2018-01-17T19:12:54.043Z,99338
2018-01-17T19:15:22.094Z,99351
2018-01-17T19:17:50.970Z,99349
2018-01-17T19:20:19.033Z,99340
2018-01-17T19:22:47.468Z,99342
2018-01-17T19:25:15.528Z,99354
2018-01-17T19:27:43.586Z,99349
2018-01-17T19:30:12.406Z,99359
2018-01-17T19:32:40.467Z,99370
2018-01-17T19:35:08.535Z,99366
2018-01-17T19:37:36.600Z,99377
2018-01-17T19:40:04.667Z,99373
2018-01-17T19:42:32.717Z,99375
2018-01-17T19:45:01.545Z,99372
2018-01-17T19:47:29.606Z,99377
2018-01-17T19:49:57.686Z,99383
2018-01-17T19:52:25.741Z,99379
2018-01-17T19:54:53.806Z,99382
2018-01-17T19:57:21.861Z,99378
2018-01-17T19:59:50.747Z,99399
2018-01-17T20:02:18.755Z,99391
2018-01-17T20:04:46.814Z,99409
2018-01-17T20:07:14.869Z,99427
2018-01-17T20:09:44.493Z,99418
2018-01-17T20:12:12.551Z,99419
2018-01-17T20:14:40.611Z,99425
2018-01-17T20:17:09.448Z,99435
2018-01-17T20:19:37.502Z,99434
2018-01-17T20:22:05.576Z,99428
2018-01-17T20:24:33.630Z,99427
2018-01-17T20:27:01.698Z,99431
2018-01-17T20:29:29.741Z,99429
2018-01-17T20:31:58.570Z,99425
2018-01-17T20:34:26.627Z,99436
2018-01-17T20:36:54.689Z,99435
2018-01-17T20:39:28.215Z,99459
2018-01-17T20:41:56.287Z,99440
2018-01-17T20:44:24.354Z,99460
2018-01-17T20:46:52.419Z,99457
2018-01-17T20:49:20.479Z,99451
2018-01-17T20:51:48.551Z,99468
2018-01-17T20:54:16.603Z,99466
2018-01-17T20:56:44.679Z,99479
2018-01-17T20:59:12.745Z,99468
2018-01-17T21:01:40.811Z,99465
2018-01-17T21:04:09.643Z,99477
2018-01-17T21:06:37.702Z,99468
2018-01-17T21:09:05.766Z,99475
2018-01-17T21:11:33.823Z,99480
2018-01-17T21:14:02.832Z,99480
2018-01-17T21:16:30.896Z,99474
2018-01-17T21:18:58.954Z,99481
2018-01-17T21:21:27.015Z,99494
2018-01-17T21:23:55.087Z,99498
2018-01-17T21:26:23.151Z,99507
2018-01-17T21:28:51.988Z,99504
2018-01-17T21:31:20.055Z,99507
2018-01-17T21:33:48.114Z,99504
2018-01-17T21:36:16.169Z,99501
2018-01-17T21:38:44.246Z,99510
2018-01-17T21:41:12.296Z,99513
2018-01-17T21:43:45.877Z,99522
2018-01-17T21:46:14.706Z,99530
2018-01-17T21:48:42.762Z,99535
2018-01-17T21:51:10.834Z,99539
2018-01-17T21:53:38.900Z,99537
2018-01-17T21:56:06.963Z,99538
2018-01-17T21:58:35.021Z,99542
2018-01-17T22:01:03.854Z,99547
2018-01-17T22:03:31.923Z,99565
2018-01-17T22:06:00.036Z,99546
2018-01-17T22:08:28.070Z,99547
2018-01-17T22:10:56.130Z,99554
2018-01-17T22:13:24.186Z,99550
2018-01-17T22:15:52.247Z,99575
2018-01-17T22:18:20.306Z,99564
2018-01-17T22:20:49.140Z,99562
2018-01-17T22:23:17.194Z,99557
2018-01-17T22:25:45.249Z,99556
2018-01-17T22:28:13.318Z,99570
2018-01-17T22:30:41.390Z,99568
2018-01-17T22:33:09.450Z,99596
2018-01-17T22:35:38.277Z,99586
2018-01-17T22:38:06.334Z,99593
2018-01-17T22:40:34.389Z,99593
2018-01-17T22:43:02.467Z,99601
2018-01-17T22:45:30.530Z,99593
2018-01-17T22:47:58.589Z,99601
2018-01-17T22:50:27.410Z,99599
2018-01-17T22:52:55.474Z,99599
2018-01-17T22:55:23.532Z,99596
2018-01-17T22:57:51.598Z,99604
2018-01-17T23:00:20.454Z,99607
2018-01-17T23:02:48.514Z,99611
2018-01-17T23:05:16.611Z,99614
2018-01-17T23:07:45.441Z,99629
2018-01-17T23:10:13.515Z,99625
2018-01-17T23:12:41.577Z,99628
2018-01-17T23:15:09.634Z,99630
2018-01-17T23:17:37.701Z,99611
2018-01-17T23:20:05.758Z,99614
2018-01-17T23:22:34.643Z,99616
2018-01-17T23:25:03.473Z,99630
2018-01-17T23:27:31.527Z,99629
2018-01-17T23:29:59.581Z,99626
2018-01-17T23:32:27.654Z,99641
2018-01-17T23:34:55.718Z,99647
2018-01-17T23:37:23.792Z,99647
2018-01-17T23:39:52.625Z,99638
2018-01-17T23:42:20.691Z,99668
2018-01-17T23:44:48.746Z,99649
2018-01-17T23:47:16.811Z,99651
2018-01-17T23:49:44.878Z,99654
2018-01-17T23:52:12.929Z,99655
2018-01-17T23:54:40.997Z,99644
2018-01-17T23:57:09.826Z,99650
2018-01-17T23:59:37.899Z,99652
